CheckWX is a tool to help pilots better visualize weather data.  It is not intended as a substitute for an official pre-flight weather briefing.

15:37:15 UTC

EVRA TAF
Riga International Airport
Riga, Latvia
TAF EVRA 151700Z 1518/1618 VRB02KT CAVOK TEMPO 1523/1605 0600 FG BKN001

Jul-15@
18:00 UTC

Jul-15 @ 18:00 UTC

Jul-16@
18:00 UTC

Jul-16 @ 18:00 UTC

TAF EVRA 151700Z 1518/1618 VRB02KT CAVOK
Wind
  • Variable at 2 KTS
Conditions
No significant weather
Cloud Levels
  • No significant clouds

Jul-15@
23:00 UTC

Jul-15 @ 23:00 UTC

Jul-16@
05:00 UTC

Jul-16 @ 05:00 UTC

TEMPO 1523/1605 0600 FG BKN001

Expired

Conditions
Fog
Cloud Levels
  • Broken at 100' AGL